createdAt,value
2017-12-02T00:00:42.439Z,90.59
2017-12-02T00:03:10.039Z,90.44
2017-12-02T00:05:37.707Z,90.53
2017-12-02T00:08:05.306Z,90.91
2017-12-02T00:10:32.953Z,91.16
2017-12-02T00:13:00.575Z,91.47
2017-12-02T00:15:28.282Z,92.73
2017-12-02T00:17:55.993Z,93.37
2017-12-02T00:20:23.659Z,93.60
2017-12-02T00:22:51.355Z,93.64
2017-12-02T00:25:19.022Z,94.10
2017-12-02T00:27:46.745Z,94.35
2017-12-02T00:30:14.418Z,94.30
2017-12-02T00:32:42.096Z,94.21
2017-12-02T00:35:09.715Z,94.13
2017-12-02T00:37:37.398Z,93.84
2017-12-02T00:40:05.162Z,93.50
2017-12-02T00:42:32.830Z,93.20
2017-12-02T00:45:00.487Z,93.03
2017-12-02T00:47:28.181Z,93.18
2017-12-02T00:49:55.826Z,93.41
2017-12-02T00:52:23.418Z,93.62
2017-12-02T00:54:51.170Z,93.69
2017-12-02T00:57:18.987Z,93.38
2017-12-02T00:59:46.582Z,93.14
2017-12-02T01:02:14.311Z,92.37
2017-12-02T01:04:41.994Z,92.50
2017-12-02T01:07:09.709Z,92.98
2017-12-02T01:09:37.402Z,93.39
2017-12-02T01:12:05.102Z,93.35
2017-12-02T01:14:32.775Z,92.94
2017-12-02T01:17:00.491Z,93.36
2017-12-02T01:19:28.095Z,93.75
2017-12-02T01:21:55.777Z,93.88
2017-12-02T01:24:23.454Z,93.71
2017-12-02T01:26:51.118Z,93.16
2017-12-02T01:29:18.779Z,93.01
2017-12-02T01:31:46.479Z,93.16
2017-12-02T01:34:14.161Z,93.15
2017-12-02T01:36:41.777Z,93.13
2017-12-02T01:39:09.470Z,92.98
2017-12-02T01:41:37.198Z,92.70
2017-12-02T01:44:04.815Z,92.24
2017-12-02T01:46:32.522Z,92.11
2017-12-02T01:49:00.213Z,92.09
2017-12-02T01:51:27.902Z,92.20
2017-12-02T01:53:55.562Z,92.25
2017-12-02T01:56:23.285Z,92.31
2017-12-02T01:58:50.958Z,92.31
2017-12-02T02:01:18.638Z,92.24
2017-12-02T02:03:46.242Z,92.12
2017-12-02T02:06:13.943Z,91.93
2017-12-02T02:08:41.537Z,92.29
2017-12-02T02:11:09.242Z,92.88
2017-12-02T02:13:36.922Z,93.38
2017-12-02T02:16:04.638Z,93.71
2017-12-02T02:18:32.387Z,93.70
2017-12-02T02:21:00.094Z,93.63
2017-12-02T02:23:27.792Z,93.09
2017-12-02T02:25:55.471Z,93.05
2017-12-02T02:28:23.156Z,93.26
2017-12-02T02:30:50.882Z,93.41
2017-12-02T02:33:18.591Z,93.32
2017-12-02T02:35:46.254Z,93.04
2017-12-02T02:38:13.974Z,92.47
2017-12-02T02:40:41.571Z,91.99
2017-12-02T02:43:09.342Z,91.53
2017-12-02T02:45:37.010Z,90.92
2017-12-02T02:48:04.726Z,90.89
2017-12-02T02:50:32.322Z,90.89
2017-12-02T02:53:00.051Z,90.87
2017-12-02T02:55:27.669Z,91.14
2017-12-02T02:57:55.347Z,91.40
2017-12-02T03:00:23.015Z,91.29
2017-12-02T03:02:50.759Z,91.40
2017-12-02T03:05:18.430Z,91.60
2017-12-02T03:07:46.053Z,91.73
2017-12-02T03:10:13.700Z,91.77
2017-12-02T03:12:41.322Z,92.13
2017-12-02T03:15:08.926Z,92.57
2017-12-02T03:17:36.556Z,93.13
2017-12-02T03:20:04.210Z,93.74
2017-12-02T03:22:31.922Z,94.16
2017-12-02T03:24:59.593Z,94.48
2017-12-02T03:27:27.294Z,94.84
2017-12-02T03:29:54.966Z,95.00
2017-12-02T03:32:22.658Z,95.15
2017-12-02T03:34:50.330Z,94.97
2017-12-02T03:37:18.038Z,94.62
2017-12-02T03:39:45.702Z,94.18
2017-12-02T03:42:13.424Z,93.48
2017-12-02T03:44:41.103Z,93.50
2017-12-02T03:47:08.782Z,93.71
2017-12-02T03:49:36.444Z,93.82
2017-12-02T03:52:04.124Z,93.71
2017-12-02T03:54:31.786Z,93.45
2017-12-02T03:56:59.498Z,93.06
2017-12-02T03:59:27.231Z,92.63
2017-12-02T04:01:54.932Z,92.41
2017-12-02T04:04:22.522Z,92.37
2017-12-02T04:06:50.247Z,92.54
2017-12-02T04:09:17.841Z,92.71
2017-12-02T04:11:45.532Z,92.73
2017-12-02T04:14:13.118Z,92.81
2017-12-02T04:16:40.838Z,92.87
2017-12-02T04:19:08.548Z,92.88
2017-12-02T04:21:36.262Z,92.85
2017-12-02T04:24:03.889Z,92.98
2017-12-02T04:26:31.510Z,93.28
2017-12-02T04:28:59.162Z,93.55
2017-12-02T04:31:26.794Z,93.70
2017-12-02T04:33:54.450Z,93.79
2017-12-02T04:36:22.151Z,93.75
2017-12-02T04:38:49.757Z,93.70
2017-12-02T04:41:17.339Z,93.65
2017-12-02T04:43:45.034Z,93.53
2017-12-02T04:46:12.699Z,93.67
2017-12-02T04:48:40.496Z,93.72
2017-12-02T04:51:08.074Z,93.47
2017-12-02T04:53:35.707Z,93.57
2017-12-02T04:56:03.361Z,93.73
2017-12-02T04:58:31.077Z,93.93
2017-12-02T05:00:58.739Z,93.95
2017-12-02T05:03:26.434Z,94.26
2017-12-02T05:05:54.111Z,94.54
2017-12-02T05:08:21.778Z,94.57
2017-12-02T05:10:49.495Z,94.53
2017-12-02T05:13:17.190Z,94.50
2017-12-02T05:15:44.845Z,94.78
2017-12-02T05:18:12.546Z,95.03
2017-12-02T05:20:40.138Z,95.12
2017-12-02T05:23:07.744Z,95.06
2017-12-02T05:25:35.402Z,95.36
2017-12-02T05:28:03.103Z,95.58
2017-12-02T05:30:30.761Z,95.79
2017-12-02T05:32:58.462Z,95.89
2017-12-02T05:35:26.110Z,95.89
2017-12-02T05:37:53.830Z,95.96
2017-12-02T05:40:21.461Z,95.83
2017-12-02T05:42:49.107Z,95.99
2017-12-02T05:45:16.794Z,96.30
2017-12-02T05:47:44.530Z,96.63
2017-12-02T05:50:12.265Z,96.72
2017-12-02T05:52:39.916Z,96.71
2017-12-02T05:55:07.678Z,96.73
2017-12-02T05:57:35.391Z,96.56
2017-12-02T06:00:03.118Z,96.41
2017-12-02T06:02:30.811Z,96.65
2017-12-02T06:04:58.628Z,97.10
2017-12-02T06:07:26.357Z,97.61
2017-12-02T06:09:54.116Z,97.89
2017-12-02T06:12:21.831Z,98.14
2017-12-02T06:14:49.570Z,98.44
2017-12-02T06:17:17.242Z,98.50
2017-12-02T06:19:44.955Z,98.28
2017-12-02T06:22:12.616Z,98.41
2017-12-02T06:24:40.359Z,98.50
2017-12-02T06:27:08.058Z,98.57
2017-12-02T06:29:35.773Z,98.52
2017-12-02T06:32:03.426Z,98.16
2017-12-02T06:34:31.151Z,98.03
2017-12-02T06:36:58.906Z,97.79
2017-12-02T06:39:26.598Z,97.96
2017-12-02T06:41:54.258Z,97.90
2017-12-02T06:44:21.947Z,98.17
2017-12-02T06:46:49.626Z,98.45
2017-12-02T06:49:17.318Z,98.51
2017-12-02T06:51:44.983Z,98.45
2017-12-02T06:54:12.746Z,98.35
2017-12-02T06:56:40.410Z,98.38
2017-12-02T06:59:08.171Z,98.52
2017-12-02T07:01:35.892Z,98.61
2017-12-02T07:04:03.653Z,98.87
2017-12-02T07:06:31.346Z,99.19
2017-12-02T07:08:59.154Z,99.47
2017-12-02T07:11:26.850Z,99.77
2017-12-02T07:13:54.562Z,99.81
2017-12-02T07:16:22.231Z,99.65
2017-12-02T07:18:49.970Z,99.49
2017-12-02T07:21:17.615Z,99.44
2017-12-02T07:23:45.318Z,99.23
2017-12-02T07:26:12.976Z,99.58
2017-12-02T07:28:40.675Z,99.53
2017-12-02T07:31:08.340Z,98.76
2017-12-02T07:33:36.047Z,98.18
2017-12-02T07:36:03.785Z,97.57
2017-12-02T07:38:31.482Z,97.62
2017-12-02T07:40:59.138Z,98.18
2017-12-02T07:43:26.838Z,98.45
2017-12-02T07:45:54.500Z,98.54
2017-12-02T07:48:22.278Z,98.53
2017-12-02T07:50:49.950Z,98.37
2017-12-02T07:53:17.651Z,98.17
2017-12-02T07:55:45.334Z,98.26
2017-12-02T07:58:13.042Z,98.02
2017-12-02T08:00:40.790Z,97.92
2017-12-02T08:03:08.511Z,97.70
2017-12-02T08:05:36.219Z,97.82
2017-12-02T08:08:03.910Z,98.07
2017-12-02T08:10:31.839Z,97.93
2017-12-02T08:12:59.531Z,97.61
2017-12-02T08:15:27.282Z,97.54
2017-12-02T08:17:54.986Z,97.81
2017-12-02T08:20:22.658Z,98.10
2017-12-02T08:22:50.387Z,98.46
2017-12-02T08:25:18.043Z,98.57
2017-12-02T08:27:45.742Z,98.65
2017-12-02T08:30:13.494Z,98.66
2017-12-02T08:32:41.182Z,98.79
2017-12-02T08:35:08.855Z,98.80
2017-12-02T08:37:36.614Z,98.88
2017-12-02T08:40:04.287Z,98.79
2017-12-02T08:42:31.997Z,98.62
2017-12-02T08:44:59.666Z,98.58
2017-12-02T08:47:27.343Z,98.31
2017-12-02T08:49:55.085Z,98.24
2017-12-02T08:52:22.810Z,97.63
2017-12-02T08:54:50.509Z,97.41
2017-12-02T08:57:18.179Z,97.30
2017-12-02T08:59:45.987Z,97.14
2017-12-02T09:02:13.647Z,97.32
2017-12-02T09:04:41.397Z,97.39
2017-12-02T09:07:09.073Z,97.42
2017-12-02T09:09:36.791Z,97.49
2017-12-02T09:12:04.479Z,97.19
2017-12-02T09:14:32.166Z,97.07
2017-12-02T09:16:59.932Z,97.37
2017-12-02T09:19:27.603Z,97.65
2017-12-02T09:21:55.332Z,97.95
2017-12-02T09:24:23.007Z,98.28
2017-12-02T09:26:50.702Z,98.60
2017-12-02T09:29:18.366Z,98.72
2017-12-02T09:31:46.070Z,98.79
2017-12-02T09:34:13.751Z,98.83
2017-12-02T09:36:41.467Z,98.84
2017-12-02T09:39:09.127Z,98.81
2017-12-02T09:41:36.882Z,98.66
2017-12-02T09:44:04.538Z,98.57
2017-12-02T09:46:32.243Z,98.54
2017-12-02T09:48:59.910Z,98.48
2017-12-02T09:51:27.645Z,98.37
2017-12-02T09:53:55.334Z,98.42
2017-12-02T09:56:23.053Z,98.42
2017-12-02T09:58:50.730Z,98.51
2017-12-02T10:01:18.478Z,98.57
2017-12-02T10:03:46.140Z,98.63
2017-12-02T10:06:13.877Z,98.31
2017-12-02T10:08:41.579Z,98.50
2017-12-02T10:11:09.283Z,98.74
2017-12-02T10:13:36.956Z,98.99
2017-12-02T10:16:04.661Z,99.32
2017-12-02T10:18:32.325Z,99.41
2017-12-02T10:21:00.046Z,98.96
2017-12-02T10:23:27.809Z,98.56
2017-12-02T10:25:55.505Z,98.39
2017-12-02T10:28:23.178Z,98.09
2017-12-02T10:30:50.883Z,97.88
2017-12-02T10:33:18.543Z,97.41
2017-12-02T10:35:46.239Z,97.02
2017-12-02T10:38:14.002Z,96.79
2017-12-02T10:40:41.683Z,96.94
2017-12-02T10:43:09.402Z,96.97
2017-12-02T10:45:37.077Z,96.87
2017-12-02T10:48:04.791Z,97.09
2017-12-02T10:50:32.467Z,97.25
2017-12-02T10:53:00.174Z,97.41
2017-12-02T10:55:27.840Z,97.55
2017-12-02T10:57:55.545Z,97.47
2017-12-02T11:00:23.226Z,97.34
2017-12-02T11:02:50.983Z,97.19
2017-12-02T11:05:18.679Z,96.93
2017-12-02T11:07:46.382Z,96.59
2017-12-02T11:10:14.078Z,96.58
2017-12-02T11:12:41.837Z,96.63
2017-12-02T11:15:09.509Z,96.41
2017-12-02T11:17:37.222Z,95.99
2017-12-02T11:20:04.907Z,95.60
2017-12-02T11:22:32.627Z,95.37
2017-12-02T11:25:01.179Z,95.63
2017-12-02T11:27:28.901Z,95.64
2017-12-02T11:29:56.570Z,95.54
2017-12-02T11:32:24.284Z,95.75
2017-12-02T11:34:51.967Z,95.99
2017-12-02T11:37:19.632Z,96.11
2017-12-02T11:39:47.307Z,95.99
2017-12-02T11:42:14.993Z,95.99
2017-12-02T11:44:42.708Z,95.86
2017-12-02T11:47:10.386Z,95.30
2017-12-02T11:49:38.110Z,95.07
2017-12-02T11:52:05.774Z,94.51
2017-12-02T11:54:33.510Z,94.00
2017-12-02T11:57:01.186Z,94.08
2017-12-02T11:59:28.926Z,93.92
2017-12-02T12:01:56.577Z,94.12
2017-12-02T12:04:24.282Z,94.17
2017-12-02T12:06:51.998Z,94.40
2017-12-02T12:09:19.699Z,94.47
2017-12-02T12:11:47.375Z,94.04
2017-12-02T12:14:15.090Z,93.60
2017-12-02T12:16:42.783Z,92.96
2017-12-02T12:19:10.496Z,92.22
2017-12-02T12:21:38.175Z,91.76
2017-12-02T12:24:05.902Z,91.06
2017-12-02T12:26:33.598Z,91.19
2017-12-02T12:29:01.310Z,91.65
2017-12-02T12:31:29.008Z,91.66
2017-12-02T12:33:56.744Z,92.16
2017-12-02T12:36:24.422Z,92.35
2017-12-02T12:38:52.135Z,92.69
2017-12-02T12:41:19.846Z,92.84
2017-12-02T12:43:47.567Z,92.90
2017-12-02T12:46:15.295Z,93.06
2017-12-02T12:48:42.991Z,93.45
2017-12-02T12:51:10.710Z,93.67
2017-12-02T12:53:38.389Z,93.91
2017-12-02T12:56:06.095Z,93.76
2017-12-02T12:58:33.769Z,93.35
2017-12-02T13:01:01.406Z,92.73
2017-12-02T13:03:29.103Z,92.21
2017-12-02T13:05:56.808Z,91.88
2017-12-02T13:08:24.477Z,91.83
2017-12-02T13:10:52.180Z,91.99
2017-12-02T13:13:19.866Z,91.33
2017-12-02T13:15:47.565Z,91.69
2017-12-02T13:18:15.274Z,92.04
2017-12-02T13:20:43.018Z,92.32
2017-12-02T13:23:10.683Z,92.33
2017-12-02T13:25:38.417Z,92.36
2017-12-02T13:28:06.108Z,92.46
2017-12-02T13:30:33.823Z,92.19
2017-12-02T13:33:01.505Z,91.76
2017-12-02T13:35:29.206Z,91.69
2017-12-02T13:37:56.882Z,91.55
2017-12-02T13:40:24.520Z,91.46
2017-12-02T13:42:52.190Z,91.30
2017-12-02T13:45:19.897Z,91.28
2017-12-02T13:47:47.578Z,91.09
2017-12-02T13:50:15.290Z,90.93
2017-12-02T13:52:42.996Z,91.18
2017-12-02T13:55:10.690Z,91.39
2017-12-02T13:57:38.396Z,91.03
2017-12-02T14:00:06.098Z,90.93
2017-12-02T14:02:33.872Z,91.27
2017-12-02T14:05:01.575Z,91.31
2017-12-02T14:07:29.262Z,90.74
2017-12-02T14:09:57.007Z,90.39
2017-12-02T14:12:24.683Z,90.39
2017-12-02T14:14:52.382Z,90.43
2017-12-02T14:17:20.068Z,90.16
2017-12-02T14:19:47.782Z,90.05
2017-12-02T14:22:15.466Z,89.82
2017-12-02T14:24:43.184Z,89.65
2017-12-02T14:27:10.859Z,89.28
2017-12-02T14:29:38.595Z,88.72
2017-12-02T14:32:07.731Z,88.33
2017-12-02T14:34:35.540Z,88.44
2017-12-02T14:37:03.222Z,88.29
2017-12-02T14:39:30.936Z,87.74
2017-12-02T14:41:58.632Z,88.03
2017-12-02T14:44:26.436Z,88.35
2017-12-02T14:46:54.145Z,87.76
2017-12-02T14:49:21.783Z,87.90
2017-12-02T14:51:49.382Z,88.46
2017-12-02T14:54:17.090Z,88.93
2017-12-02T14:56:44.868Z,88.96
2017-12-02T14:59:12.570Z,88.67
2017-12-02T15:01:40.186Z,88.47
2017-12-02T15:04:07.904Z,88.00
2017-12-02T15:06:35.658Z,87.63
2017-12-02T15:09:03.373Z,87.96
2017-12-02T15:11:31.058Z,87.98
2017-12-02T15:13:58.673Z,87.79
2017-12-02T15:16:26.353Z,87.83
2017-12-02T15:18:54.079Z,88.05
2017-12-02T15:21:21.706Z,88.11
2017-12-02T15:23:49.491Z,88.30
2017-12-02T15:26:17.186Z,88.50
2017-12-02T15:28:45.010Z,88.99
2017-12-02T15:31:12.692Z,89.22
2017-12-02T15:33:40.439Z,89.30
2017-12-02T15:36:08.136Z,89.14
2017-12-02T15:38:35.883Z,89.03
2017-12-02T15:41:03.566Z,88.32
2017-12-02T15:43:31.283Z,88.42
2017-12-02T15:45:58.950Z,88.72
2017-12-02T15:48:26.666Z,89.29
2017-12-02T15:50:54.493Z,89.48
2017-12-02T15:53:22.171Z,89.90
2017-12-02T15:55:49.815Z,90.03
2017-12-02T15:58:17.505Z,89.77
2017-12-02T16:00:45.331Z,89.50
2017-12-02T16:03:13.043Z,89.37
2017-12-02T16:05:40.825Z,89.69
2017-12-02T16:08:08.547Z,89.69
2017-12-02T16:10:36.279Z,89.22
2017-12-02T16:13:03.959Z,89.20
2017-12-02T16:15:31.737Z,89.49
2017-12-02T16:17:59.426Z,89.37
2017-12-02T16:20:27.176Z,89.35
2017-12-02T16:22:54.860Z,89.21
2017-12-02T16:25:22.579Z,89.08
2017-12-02T16:27:50.308Z,88.66
2017-12-02T16:30:18.075Z,88.76
2017-12-02T16:32:45.765Z,88.92
2017-12-02T16:35:13.508Z,88.94
2017-12-02T16:37:41.256Z,89.29
2017-12-02T16:40:08.998Z,89.25
2017-12-02T16:42:36.745Z,89.46
2017-12-02T16:45:04.445Z,89.19
2017-12-02T16:47:32.131Z,89.02
2017-12-02T16:49:59.901Z,88.60
2017-12-02T16:52:27.607Z,88.41
2017-12-02T16:54:55.357Z,88.17
2017-12-02T16:57:23.059Z,88.02
2017-12-02T16:59:50.759Z,87.91
2017-12-02T17:02:18.436Z,88.10
2017-12-02T17:04:46.223Z,88.26
2017-12-02T17:07:13.948Z,91.25
2017-12-02T17:09:41.680Z,88.63
2017-12-02T17:12:09.502Z,87.38
2017-12-02T17:14:37.296Z,87.08
2017-12-02T17:17:05.070Z,86.90
2017-12-02T17:19:32.820Z,86.65
2017-12-02T17:22:00.486Z,86.76
2017-12-02T17:24:28.228Z,86.83
2017-12-02T17:26:55.934Z,86.62
2017-12-02T17:29:23.638Z,86.72
2017-12-02T17:31:51.330Z,86.72
2017-12-02T17:34:19.054Z,86.89
2017-12-02T17:36:46.743Z,87.37
2017-12-02T17:39:14.455Z,87.15
2017-12-02T17:41:42.138Z,87.07
2017-12-02T17:44:09.857Z,87.09
2017-12-02T17:46:37.530Z,87.01
2017-12-02T17:49:05.331Z,87.13
2017-12-02T17:51:33.020Z,87.50
2017-12-02T17:54:00.756Z,88.37
2017-12-02T17:56:28.492Z,88.58
2017-12-02T17:58:56.236Z,88.65
2017-12-02T18:01:23.962Z,88.74
2017-12-02T18:03:51.697Z,88.78
2017-12-02T18:06:19.367Z,88.44
2017-12-02T18:08:47.063Z,88.46
2017-12-02T18:11:14.806Z,88.08
2017-12-02T18:13:42.531Z,87.75
2017-12-02T18:16:10.311Z,87.83
2017-12-02T18:18:38.065Z,88.07
2017-12-02T18:21:05.802Z,88.28
2017-12-02T18:23:33.591Z,88.43
2017-12-02T18:26:01.287Z,88.44
2017-12-02T18:28:29.083Z,88.73
2017-12-02T18:30:56.847Z,89.25
2017-12-02T18:33:24.636Z,89.51
2017-12-02T18:35:52.449Z,89.72
2017-12-02T18:38:20.219Z,89.75
2017-12-02T18:40:47.949Z,89.88
2017-12-02T18:43:15.773Z,89.75
2017-12-02T18:45:43.433Z,89.64
2017-12-02T18:48:11.150Z,89.83
2017-12-02T18:50:38.776Z,89.93
2017-12-02T18:53:06.588Z,90.01
2017-12-02T18:55:34.274Z,89.66
2017-12-02T18:58:01.990Z,89.37
2017-12-02T19:00:30.522Z,89.47
2017-12-02T19:02:58.236Z,89.69
2017-12-02T19:05:25.926Z,89.60
2017-12-02T19:07:53.657Z,89.51
2017-12-02T19:10:21.338Z,89.30
2017-12-02T19:12:49.042Z,89.07
2017-12-02T19:15:16.639Z,88.77
2017-12-02T19:17:44.356Z,88.29
2017-12-02T19:20:12.117Z,87.79
2017-12-02T19:22:39.914Z,88.06
2017-12-02T19:25:07.618Z,88.34
2017-12-02T19:27:35.335Z,88.37
2017-12-02T19:30:03.103Z,88.01
2017-12-02T19:32:30.831Z,87.96
2017-12-02T19:34:58.502Z,88.41
2017-12-02T19:37:26.209Z,88.46
2017-12-02T19:39:53.892Z,88.14
2017-12-02T19:42:21.669Z,88.46
2017-12-02T19:44:49.364Z,88.71
2017-12-02T19:47:17.147Z,88.72
2017-12-02T19:49:44.926Z,88.57
2017-12-02T19:52:12.713Z,88.32
2017-12-02T19:54:40.473Z,88.71
2017-12-02T19:57:08.191Z,89.24
2017-12-02T19:59:35.868Z,89.43
2017-12-02T20:02:03.586Z,89.25
2017-12-02T20:04:31.276Z,89.23
2017-12-02T20:06:59.141Z,89.02
2017-12-02T20:09:26.840Z,88.81
2017-12-02T20:11:54.538Z,88.70
2017-12-02T20:14:22.379Z,88.58
2017-12-02T20:16:50.130Z,89.31
2017-12-02T20:19:17.867Z,98.18
2017-12-02T20:21:45.574Z,95.20
2017-12-02T20:24:13.269Z,90.11
2017-12-02T20:26:41.064Z,87.83
2017-12-02T20:29:08.786Z,87.80
2017-12-02T20:31:36.462Z,88.21
2017-12-02T20:34:04.271Z,87.83
2017-12-02T20:36:32.049Z,87.56
2017-12-02T20:38:59.860Z,87.46
2017-12-02T20:41:27.590Z,87.36
2017-12-02T20:43:55.399Z,87.41
2017-12-02T20:46:23.076Z,87.47
2017-12-02T20:48:50.812Z,87.33
2017-12-02T20:51:18.504Z,87.01
2017-12-02T20:53:46.262Z,87.12
2017-12-02T20:56:14.092Z,87.52
2017-12-02T20:58:41.823Z,87.80
2017-12-02T21:01:09.486Z,87.87
2017-12-02T21:03:37.259Z,87.49
2017-12-02T21:06:05.011Z,87.77
2017-12-02T21:08:32.754Z,87.90
2017-12-02T21:11:00.442Z,88.58
2017-12-02T21:13:28.154Z,89.12
2017-12-02T21:15:55.920Z,89.39
2017-12-02T21:18:23.720Z,89.54
2017-12-02T21:20:51.392Z,89.29
2017-12-02T21:23:19.164Z,88.79
2017-12-02T21:25:46.853Z,88.22
2017-12-02T21:28:14.566Z,87.78
2017-12-02T21:30:42.271Z,87.36
2017-12-02T21:33:10.006Z,87.31
2017-12-02T21:35:37.774Z,87.23
2017-12-02T21:38:05.532Z,87.52
2017-12-02T21:40:33.144Z,87.33
2017-12-02T21:43:00.855Z,86.03
2017-12-02T21:45:28.613Z,85.44
2017-12-02T21:47:56.348Z,85.26
2017-12-02T21:50:24.022Z,85.24
2017-12-02T21:52:51.791Z,85.28
2017-12-02T21:55:19.474Z,85.02
2017-12-02T21:57:49.031Z,84.79
2017-12-02T22:00:16.754Z,84.73
2017-12-02T22:02:44.954Z,85.21
2017-12-02T22:05:12.629Z,85.62
2017-12-02T22:07:40.413Z,85.88
2017-12-02T22:10:08.086Z,85.60
2017-12-02T22:12:35.829Z,85.23
2017-12-02T22:15:03.522Z,85.76
2017-12-02T22:17:31.285Z,86.38
2017-12-02T22:19:59.033Z,86.73
2017-12-02T22:22:26.745Z,86.96
2017-12-02T22:24:54.462Z,87.09
2017-12-02T22:27:23.654Z,86.95
2017-12-02T22:29:51.414Z,87.02
2017-12-02T22:32:19.093Z,87.12
2017-12-02T22:34:46.794Z,87.07
2017-12-02T22:37:15.358Z,86.73
2017-12-02T22:39:43.109Z,86.68
2017-12-02T22:42:10.801Z,86.80
2017-12-02T22:44:38.535Z,86.81
2017-12-02T22:47:06.191Z,87.12
2017-12-02T22:49:33.936Z,87.44
2017-12-02T22:52:01.622Z,87.76
2017-12-02T22:54:29.314Z,87.71
2017-12-02T22:56:57.015Z,87.41
2017-12-02T22:59:24.739Z,86.80
2017-12-02T23:01:52.423Z,86.47
2017-12-02T23:04:20.547Z,86.46
2017-12-02T23:06:48.246Z,86.80
2017-12-02T23:09:15.959Z,86.90
2017-12-02T23:11:43.622Z,87.05
2017-12-02T23:14:11.334Z,87.29
2017-12-02T23:16:39.027Z,87.03
2017-12-02T23:19:06.758Z,87.05
2017-12-02T23:21:34.437Z,86.82
2017-12-02T23:24:02.192Z,86.79
2017-12-02T23:26:29.870Z,86.64
2017-12-02T23:28:57.530Z,86.60
2017-12-02T23:31:25.230Z,86.05
2017-12-02T23:33:52.972Z,85.96
2017-12-02T23:36:20.694Z,85.84
2017-12-02T23:38:48.362Z,85.82
2017-12-02T23:41:16.135Z,86.01
2017-12-02T23:43:43.823Z,86.07
2017-12-02T23:46:11.554Z,86.12
2017-12-02T23:48:39.230Z,86.37
2017-12-02T23:51:06.950Z,86.22
2017-12-02T23:53:34.650Z,86.18
2017-12-02T23:56:02.347Z,86.26
2017-12-02T23:58:30.067Z,86.48
